Time;durP1;ratioP1;P1;durP2;ratioP2;P2;SDS_P1;SDS_P2;PMS_P1;PMS_P2;Temp;Humidity;BMP_temperature;BMP_pressure;BME280_temperature;BME280_humidity;BME280_pressure;Samples;Min_cycle;Max_cycle;Signal;HPM_P1;HPM_P2
2023/02/06 00:02:12;;;;;;;37.10;18.20;;;;;;;-4.05;73.70;102440.89;130818;1259;107547;-74
2023/02/06 00:05:18;;;;;;;37.60;17.10;;;;;;;-4.06;73.65;102445.59;130818;1259;107470;-74
2023/02/06 00:08:23;;;;;;;36.50;17.10;;;;;;;-4.05;73.57;102447.49;130819;1257;107265;-73
2023/02/06 00:11:29;;;;;;;33.50;15.50;;;;;;;-4.06;73.40;102438.98;130732;1259;109047;-73
2023/02/06 00:14:35;;;;;;;33.00;16.00;;;;;;;-4.03;73.56;102440.70;130752;1259;107445;-73
2023/02/06 00:17:41;;;;;;;34.00;16.10;;;;;;;-3.98;73.56;102440.69;130629;1258;107647;-75
2023/02/06 00:20:47;;;;;;;32.50;15.30;;;;;;;-3.91;73.45;102438.74;130709;1256;107234;-74
2023/02/06 00:23:54;;;;;;;40.00;16.90;;;;;;;-3.85;73.22;102439.23;130801;1267;107846;-73
2023/02/06 00:26:59;;;;;;;42.40;18.40;;;;;;;-3.81;73.38;102439.91;130823;1258;107426;-74
2023/02/06 00:30:06;;;;;;;41.20;18.20;;;;;;;-3.76;73.28;102439.55;130674;1256;107546;-73
2023/02/06 00:33:12;;;;;;;44.70;18.90;;;;;;;-3.77;73.13;102443.02;130550;1257;107539;-74
2023/02/06 00:36:17;;;;;;;43.10;19.10;;;;;;;-3.78;73.43;102441.98;130557;1254;107426;-73
2023/02/06 00:39:23;;;;;;;40.30;19.10;;;;;;;-3.76;73.19;102437.97;130569;1258;107566;-73
2023/02/06 00:42:29;;;;;;;35.60;17.90;;;;;;;-3.76;73.13;102443.71;130555;1258;105907;-73
2023/02/06 00:45:35;;;;;;;39.60;17.90;;;;;;;-3.78;73.45;102444.42;130525;1259;107363;-73
2023/02/06 00:48:40;;;;;;;42.60;17.70;;;;;;;-3.79;73.12;102438.34;130642;1259;107380;-73
2023/02/06 00:51:46;;;;;;;40.50;18.10;;;;;;;-3.82;73.15;102441.83;130780;1259;107538;-74
2023/02/06 00:54:53;;;;;;;38.80;16.60;;;;;;;-3.84;73.32;102443.41;130840;1259;107674;-73
2023/02/06 00:57:59;;;;;;;38.10;16.30;;;;;;;-3.87;73.15;102440.64;130580;1261;107213;-74
2023/02/06 01:01:04;;;;;;;36.20;17.40;;;;;;;-3.90;73.19;102437.00;130636;1267;107390;-73
2023/02/06 01:04:10;;;;;;;38.50;17.80;;;;;;;-3.93;73.35;102430.58;130618;1260;106698;-73
2023/02/06 01:07:16;;;;;;;37.30;17.00;;;;;;;-3.95;73.28;102429.19;130593;1259;107571;-73
2023/02/06 01:10:22;;;;;;;38.80;16.70;;;;;;;-3.98;73.31;102422.42;130711;1261;107254;-73
2023/02/06 01:13:28;;;;;;;37.40;16.70;;;;;;;-4.02;73.11;102418.96;130717;1259;107407;-74
2023/02/06 01:16:33;;;;;;;36.20;16.40;;;;;;;-4.05;73.11;102407.69;130743;1265;109325;-72
2023/02/06 01:19:40;;;;;;;35.80;16.70;;;;;;;-4.11;73.13;102399.20;130709;1259;107503;-75
2023/02/06 01:22:46;;;;;;;37.20;16.70;;;;;;;-4.18;72.91;102394.88;130527;1261;106366;-73
2023/02/06 01:25:51;;;;;;;36.00;16.90;;;;;;;-4.24;73.00;102391.23;130551;1259;107510;-73
2023/02/06 01:28:57;;;;;;;40.20;17.50;;;;;;;-4.29;72.96;102384.14;130533;1256;108640;-76
2023/02/06 01:32:03;;;;;;;35.70;16.40;;;;;;;-4.36;73.09;102389.55;130552;1256;107270;-75
2023/02/06 01:35:10;;;;;;;39.00;17.50;;;;;;;-4.41;72.98;102395.48;130620;1257;107552;-74
2023/02/06 01:38:16;;;;;;;142.50;38.60;;;;;;;-4.46;72.92;102393.92;130813;1259;107511;-74
2023/02/06 01:41:24;;;;;;;92.20;28.00;;;;;;;-4.51;72.85;102396.38;130763;1258;105827;-74
2023/02/06 01:44:31;;;;;;;65.80;24.50;;;;;;;-4.57;72.70;102398.98;130535;1259;106712;-74
2023/02/06 01:47:36;;;;;;;54.80;21.40;;;;;;;-4.63;72.73;102393.10;130495;1259;107555;-76
2023/02/06 01:50:46;;;;;;;44.60;18.90;;;;;;;-4.68;72.63;102391.55;130732;1256;107219;-74
2023/02/06 01:53:56;;;;;;;41.70;18.40;;;;;;;-4.73;72.60;102393.12;130737;1258;107447;-74
2023/02/06 01:57:09;;;;;;;48.30;18.70;;;;;;;-4.80;72.49;102384.97;130626;1266;107547;-74
2023/02/06 02:00:15;;;;;;;41.20;17.90;;;;;;;-4.86;72.43;102386.54;130536;1259;107551;-75
2023/02/06 02:03:21;;;;;;;42.80;17.90;;;;;;;-4.91;72.26;102395.73;130696;1260;109091;-73
2023/02/06 02:06:28;;;;;;;42.00;18.80;;;;;;;-4.97;72.25;102393.14;130623;1262;107546;-73
2023/02/06 02:09:35;;;;;;;47.00;19.40;;;;;;;-5.02;72.21;102398.52;130699;1259;107527;-74
2023/02/06 02:12:40;;;;;;;43.70;19.10;;;;;;;-5.09;72.39;102404.61;130655;1262;107469;-74
2023/02/06 02:15:57;;;;;;;52.80;21.60;;;;;;;-5.13;72.07;102399.41;130631;1259;107648;-75
2023/02/06 02:19:21;;;;;;;50.20;20.60;;;;;;;-5.17;72.36;102398.36;130480;1259;107987;-74
2023/02/06 02:22:55;;;;;;;51.10;20.70;;;;;;;-5.22;72.62;102407.55;130608;1258;107373;-74
2023/02/06 02:26:38;;;;;;;57.30;22.70;;;;;;;-5.31;73.06;102407.05;130577;1262;106492;-74
2023/02/06 02:30:12;;;;;;;56.80;23.00;;;;;;;-5.32;73.55;102409.13;130360;1270;107369;-73
2023/02/06 02:33:46;;;;;;;50.10;20.80;;;;;;;-5.35;73.57;102405.12;130505;1259;107443;-73
2023/02/06 02:36:58;;;;;;;51.70;23.60;;;;;;;-5.32;73.93;102408.95;130718;1259;107578;-73
2023/02/06 02:40:22;;;;;;;48.90;21.90;;;;;;;-5.27;74.39;102410.50;130756;1259;107878;-74
2023/02/06 02:43:39;;;;;;;51.20;21.40;;;;;;;-5.18;74.38;102414.85;130718;1259;107597;-75
2023/02/06 02:46:48;;;;;;;50.70;20.80;;;;;;;-5.09;74.57;102420.56;130639;1260;106590;-76
2023/02/06 02:49:54;;;;;;;52.50;22.70;;;;;;;-5.03;74.52;102419.17;130517;1259;107438;-74
2023/02/06 02:53:02;;;;;;;63.70;26.00;;;;;;;-4.98;74.34;102418.48;130518;1261;107393;-74
2023/02/06 02:56:16;;;;;;;53.50;21.50;;;;;;;-4.90;74.27;102421.44;130669;1259;106268;-75
2023/02/06 02:59:28;;;;;;;57.80;22.50;;;;;;;-4.85;74.00;102417.27;130508;1259;107516;-74
2023/02/06 03:02:38;;;;;;;63.70;22.70;;;;;;;-4.80;73.84;102418.83;130580;1267;106598;-74
2023/02/06 03:05:59;;;;;;;55.20;21.20;;;;;;;-4.77;73.60;102417.77;130626;1259;107601;-75
2023/02/06 03:09:16;;;;;;;50.80;21.10;;;;;;;-4.74;73.43;102421.08;130565;1261;107775;-73
2023/02/06 03:12:32;;;;;;;44.70;19.10;;;;;;;-4.72;73.25;102420.73;130599;1268;107374;-74
2023/02/06 03:15:46;;;;;;;41.90;17.60;;;;;;;-4.74;73.04;102418.48;130517;1259;105450;-74
2023/02/06 03:18:57;;;;;;;45.20;18.40;;;;;;;-4.77;73.08;102415.86;130566;1267;106570;-75
2023/02/06 03:22:05;;;;;;;37.40;17.10;;;;;;;-4.78;72.93;102412.91;130625;1267;107450;-73
2023/02/06 03:25:18;;;;;;;37.20;16.30;;;;;;;-4.78;73.11;102410.66;130585;1264;107559;-74
2023/02/06 03:28:31;;;;;;;41.30;16.50;;;;;;;-4.77;72.94;102408.58;130503;1264;108570;-74
2023/02/06 03:31:43;;;;;;;35.60;15.80;;;;;;;-4.77;73.03;102404.77;130767;1259;106797;-73
2023/02/06 03:34:55;;;;;;;37.70;16.60;;;;;;;-4.78;72.99;102409.45;130790;1260;107443;-74
2023/02/06 03:38:01;;;;;;;42.90;17.70;;;;;;;-4.78;73.03;102409.45;130768;1267;107390;-74
2023/02/06 03:41:07;;;;;;;44.00;17.70;;;;;;;-4.80;72.87;102405.45;130750;1259;107537;-76
2023/02/06 03:44:20;;;;;;;40.90;17.50;;;;;;;-4.82;72.77;102407.02;130816;1260;107518;-76
2023/02/06 03:47:26;;;;;;;42.00;18.00;;;;;;;-4.84;72.72;102407.38;130833;1260;107442;-75
2023/02/06 03:50:34;;;;;;;40.30;17.30;;;;;;;-4.88;72.78;102404.08;130737;1259;107554;-77
2023/02/06 03:53:41;;;;;;;41.60;17.60;;;;;;;-4.90;72.71;102396.79;130707;1259;107521;-75
2023/02/06 03:56:52;;;;;;;37.30;17.10;;;;;;;-4.92;72.83;102391.41;130727;1259;107451;-74
2023/02/06 03:59:58;;;;;;;41.10;16.50;;;;;;;-4.95;72.67;102390.02;130734;1259;107489;-71
2023/02/06 04:03:04;;;;;;;39.10;16.20;;;;;;;-4.99;72.55;102387.27;130698;1259;108014;-73
2023/02/06 04:06:10;;;;;;;39.30;17.00;;;;;;;-5.04;72.44;102386.21;130614;1267;107625;-74
2023/02/06 04:09:16;;;;;;;40.40;16.20;;;;;;;-5.06;72.51;102379.80;130614;1259;107549;-73
2023/02/06 04:12:22;;;;;;;37.60;16.30;;;;;;;-5.07;72.36;102373.73;130552;1261;105558;-72
2023/02/06 04:15:28;;;;;;;40.10;16.40;;;;;;;-5.08;72.50;102372.16;130532;1267;107404;-72
2023/02/06 04:18:33;;;;;;;37.20;16.30;;;;;;;-5.08;72.40;102370.77;130633;1261;107322;-73
2023/02/06 04:21:39;;;;;;;35.60;16.50;;;;;;;-5.11;72.53;102369.03;130619;1267;107476;-72
2023/02/06 04:24:44;;;;;;;37.10;16.20;;;;;;;-5.10;72.40;102372.67;130671;1267;107567;-73
2023/02/06 04:27:51;;;;;;;38.30;16.50;;;;;;;-5.10;72.36;102375.27;130672;1261;107644;-73
2023/02/06 04:30:56;;;;;;;36.20;16.20;;;;;;;-5.10;72.25;102378.40;130507;1260;107533;-73
2023/02/06 04:34:02;;;;;;;35.10;16.80;;;;;;;-5.12;72.16;102382.40;130536;1269;107687;-73
2023/02/06 04:37:11;;;;;;;37.30;16.60;;;;;;;-5.14;72.29;102385.02;130583;1261;107616;-73
2023/02/06 04:40:17;;;;;;;36.30;15.70;;;;;;;-5.16;72.13;102385.88;130695;1267;108621;-74
2023/02/06 04:43:22;;;;;;;36.20;16.30;;;;;;;-5.17;72.14;102391.26;130620;1268;107503;-73
2023/02/06 04:46:28;;;;;;;37.50;17.20;;;;;;;-5.18;72.31;102391.42;130710;1267;107616;-73
2023/02/06 04:49:33;;;;;;;35.10;15.80;;;;;;;-5.19;72.24;102397.32;130543;1266;106296;-73
2023/02/06 04:52:39;;;;;;;34.60;16.50;;;;;;;-5.19;72.16;102398.02;130558;1258;107535;-74
2023/02/06 04:55:44;;;;;;;35.90;15.60;;;;;;;-5.25;71.99;102396.80;130576;1263;107246;-72
2023/02/06 04:58:50;;;;;;;35.40;16.20;;;;;;;-5.29;72.24;102390.21;130551;1259;107631;-73
2023/02/06 05:01:55;;;;;;;34.90;16.10;;;;;;;-5.27;72.03;102392.46;130506;1258;107533;-73
2023/02/06 05:05:01;;;;;;;36.30;16.20;;;;;;;-5.27;72.17;102393.68;130602;1266;107467;-73
2023/02/06 05:08:07;;;;;;;37.70;15.50;;;;;;;-5.29;72.16;102396.96;130617;1254;107222;-73
2023/02/06 05:11:12;;;;;;;38.40;16.20;;;;;;;-5.29;72.09;102398.19;130574;1255;105551;-73
2023/02/06 05:14:18;;;;;;;36.20;16.70;;;;;;;-5.30;71.91;102395.77;130526;1259;106042;-72
2023/02/06 05:17:23;;;;;;;34.20;15.70;;;;;;;-5.33;71.85;102394.02;130707;1257;107582;-72
2023/02/06 05:20:29;;;;;;;35.00;15.30;;;;;;;-5.32;72.02;102396.80;130744;1257;106427;-73
2023/02/06 05:23:35;;;;;;;36.50;15.30;;;;;;;-5.30;72.06;102400.45;130627;1260;108568;-72
2023/02/06 05:26:41;;;;;;;34.90;15.10;;;;;;;-5.30;72.14;102399.58;130827;1267;107542;-72
2023/02/06 05:29:46;;;;;;;37.40;16.10;;;;;;;-5.29;72.09;102403.40;130676;1257;108000;-73
2023/02/06 05:32:52;;;;;;;38.50;16.60;;;;;;;-5.29;71.93;102403.75;130779;1259;106730;-73
2023/02/06 05:36:02;;;;;;;37.00;16.70;;;;;;;-5.29;72.02;102400.97;130777;1259;107528;-72
2023/02/06 05:39:08;;;;;;;38.40;15.80;;;;;;;-5.30;71.93;102400.27;130859;1267;107588;-73
2023/02/06 05:42:13;;;;;;;36.70;16.00;;;;;;;-5.29;71.93;102403.56;130686;1258;107555;-73
2023/02/06 05:45:19;;;;;;;40.00;17.90;;;;;;;-5.33;71.96;102403.39;130728;1257;107570;-73
2023/02/06 05:48:27;;;;;;;39.30;16.50;;;;;;;-5.37;71.67;102405.46;130560;1256;107520;-73
2023/02/06 05:51:33;;;;;;;41.60;17.60;;;;;;;-5.39;71.74;102409.80;130626;1260;107480;-72
2023/02/06 05:54:38;;;;;;;40.80;17.50;;;;;;;-5.43;71.73;102415.69;130581;1260;107219;-72
2023/02/06 05:57:44;;;;;;;38.20;15.90;;;;;;;-5.47;71.77;102415.00;130709;1269;107532;-72
2023/02/06 06:00:50;;;;;;;37.30;16.40;;;;;;;-5.46;71.80;102416.04;130697;1260;107530;-72
2023/02/06 06:03:55;;;;;;;37.50;16.70;;;;;;;-5.48;71.84;102414.98;130727;1260;107349;-73
2023/02/06 06:07:01;;;;;;;40.50;17.20;;;;;;;-5.52;71.61;102416.55;130704;1258;107627;-74
2023/02/06 06:10:08;;;;;;;36.50;15.70;;;;;;;-5.54;71.77;102413.25;130584;1269;107387;-73
2023/02/06 06:13:14;;;;;;;37.30;16.80;;;;;;;-5.55;71.72;102414.30;130571;1269;106261;-72
2023/02/06 06:16:19;;;;;;;41.90;16.60;;;;;;;-5.57;71.81;102411.33;130609;1257;107173;-73
2023/02/06 06:19:25;;;;;;;38.30;16.80;;;;;;;-5.61;71.73;102412.38;130488;1261;106748;-72
2023/02/06 06:22:30;;;;;;;42.40;17.20;;;;;;;-5.61;71.67;102416.02;130578;1261;107528;-72
2023/02/06 06:25:36;;;;;;;35.60;16.30;;;;;;;-5.64;71.54;102415.14;130572;1261;108678;-74
2023/02/06 06:28:42;;;;;;;37.60;16.70;;;;;;;-5.65;71.62;102409.23;130510;1258;107584;-73
2023/02/06 06:31:49;;;;;;;40.20;16.80;;;;;;;-5.67;71.60;102413.39;130503;1260;107368;-72
2023/02/06 06:34:54;;;;;;;41.40;17.90;;;;;;;-5.69;71.62;102415.98;130455;1259;107330;-72
2023/02/06 06:38:00;;;;;;;42.10;17.10;;;;;;;-5.73;71.27;102414.77;130503;1259;107519;-74
2023/02/06 06:41:06;;;;;;;40.40;17.20;;;;;;;-5.76;71.40;102412.52;130776;1258;108655;-74
2023/02/06 06:44:11;;;;;;;44.30;18.20;;;;;;;-5.77;71.38;102418.74;130576;1258;107512;-74
2023/02/06 06:47:17;;;;;;;47.40;19.10;;;;;;;-5.79;71.60;102419.77;130584;1260;106554;-72
2023/02/06 06:50:22;;;;;;;62.00;23.00;;;;;;;-5.80;71.22;102424.11;130585;1261;107822;-73
2023/02/06 06:53:28;;;;;;;53.40;20.80;;;;;;;-5.81;71.66;102421.66;130620;1260;106785;-73
2023/02/06 06:56:34;;;;;;;43.60;18.20;;;;;;;-5.80;71.22;102420.98;130499;1258;108640;-73
2023/02/06 06:59:40;;;;;;;45.60;18.60;;;;;;;-5.81;71.27;102424.10;130628;1259;106789;-72
2023/02/06 07:02:45;;;;;;;42.50;18.60;;;;;;;-5.80;71.11;102430.52;130610;1268;107403;-73
2023/02/06 07:05:51;;;;;;;41.90;17.20;;;;;;;-5.77;71.38;102429.84;130513;1254;107232;-73
2023/02/06 07:08:56;;;;;;;42.90;17.90;;;;;;;-5.69;71.56;102434.02;130550;1260;107749;-74
2023/02/06 07:12:02;;;;;;;63.20;22.40;;;;;;;-5.65;71.42;102433.70;130530;1258;107507;-73
2023/02/06 07:15:10;;;;;;;55.30;21.80;;;;;;;-5.58;71.47;102437.52;130701;1258;107610;-73
2023/02/06 07:18:15;;;;;;;47.90;20.80;;;;;;;-5.48;71.44;102436.15;130770;1254;107550;-74
2023/02/06 07:21:21;;;;;;;47.80;20.20;;;;;;;-5.39;71.35;102438.09;130753;1257;107530;-73
2023/02/06 07:24:26;;;;;;;44.50;19.40;;;;;;;-5.31;71.72;102432.70;130786;1257;107568;-73
2023/02/06 07:27:32;;;;;;;45.60;19.80;;;;;;;-5.19;71.70;102434.63;130475;1260;107523;-72
2023/02/06 07:30:38;;;;;;;53.40;24.00;;;;;;;-5.08;71.52;102437.92;130808;1269;107415;-73
2023/02/06 07:33:43;;;;;;;65.80;29.80;;;;;;;-4.97;71.70;102439.66;130642;1259;107550;-73
2023/02/06 07:36:49;;;;;;;69.20;29.30;;;;;;;-4.87;71.74;102435.33;130560;1260;107432;-72
2023/02/06 07:39:54;;;;;;;77.50;33.20;;;;;;;-4.75;71.85;102429.24;130495;1258;107255;-73
2023/02/06 07:43:00;;;;;;;125.50;43.90;;;;;;;-4.60;71.88;102428.88;130556;1261;107567;-72
2023/02/06 07:46:12;;;;;;;120.80;44.30;;;;;;;-4.45;72.05;102423.63;130715;1258;106560;-72
2023/02/06 07:49:17;;;;;;;91.40;37.00;;;;;;;-4.22;72.20;102429.30;130559;1254;108533;-71
2023/02/06 07:52:23;;;;;;;67.20;27.10;;;;;;;-3.92;72.61;102432.48;130790;1254;106248;-71
2023/02/06 07:55:29;;;;;;;53.80;21.40;;;;;;;-3.65;73.03;102432.16;130631;1257;107565;-73
2023/02/06 07:58:35;;;;;;;51.50;23.00;;;;;;;-3.37;73.02;102441.41;130592;1259;107412;-73
2023/02/06 08:01:41;;;;;;;55.20;23.80;;;;;;;-3.14;73.11;102440.03;130558;1261;107525;-72
2023/02/06 08:04:46;;;;;;;54.70;25.40;;;;;;;-2.92;73.34;102438.30;130748;1258;107354;-73
2023/02/06 08:07:53;;;;;;;47.40;23.70;;;;;;;-2.77;73.54;102440.07;130705;1260;107584;-73
2023/02/06 08:10:58;;;;;;;49.30;23.40;;;;;;;-2.75;73.41;102435.88;130660;1258;108678;-73
2023/02/06 08:14:04;;;;;;;50.20;24.20;;;;;;;-2.65;74.07;102430.55;130665;1254;107523;-73
2023/02/06 08:17:11;;;;;;;61.10;28.20;;;;;;;-2.63;73.93;102432.27;130562;1256;106683;-74
2023/02/06 08:20:17;;;;;;;66.60;29.30;;;;;;;-2.68;73.94;102434.08;130552;1258;107232;-73
2023/02/06 08:23:22;;;;;;;56.60;26.90;;;;;;;-2.65;74.19;102431.60;130496;1254;108368;-73
2023/02/06 08:26:29;;;;;;;52.10;24.70;;;;;;;-2.66;73.90;102437.52;130602;1257;107617;-73
2023/02/06 08:29:41;;;;;;;65.20;32.20;;;;;;;-2.68;74.61;102437.39;130785;1257;107493;-72
2023/02/06 08:32:46;;;;;;;52.50;25.20;;;;;;;-2.70;74.55;102426.95;130585;1257;107443;-73
2023/02/06 08:35:52;;;;;;;54.70;28.10;;;;;;;-2.67;74.80;102426.23;130592;1254;108160;-73
2023/02/06 08:38:59;;;;;;;53.00;26.80;;;;;;;-2.61;74.96;102425.45;130728;1257;107556;-72
2023/02/06 08:42:05;;;;;;;79.00;36.10;;;;;;;-2.58;75.12;102430.66;130808;1257;107394;-72
2023/02/06 08:45:11;;;;;;;74.00;32.80;;;;;;;-2.55;75.72;102437.08;130632;1258;107470;-72
2023/02/06 08:48:17;;;;;;;57.70;26.30;;;;;;;-2.62;76.22;102435.41;130795;1254;107507;-72
2023/02/06 08:51:26;;;;;;;85.00;35.60;;;;;;;-2.63;76.09;102444.14;130683;1254;107542;-72
2023/02/06 08:54:32;;;;;;;97.00;41.50;;;;;;;-2.53;76.54;102440.38;130487;1267;195539;-72
2023/02/06 08:57:37;;;;;;;58.10;27.10;;;;;;;-2.49;76.10;102442.08;130542;1257;108998;-74
2023/02/06 09:00:43;;;;;;;61.00;29.10;;;;;;;-2.48;76.14;102443.80;130527;1254;107200;-73
2023/02/06 09:03:49;;;;;;;64.10;31.00;;;;;;;-2.52;75.99;102443.14;130542;1255;107392;-72
2023/02/06 09:06:54;;;;;;;59.50;29.10;;;;;;;-2.53;76.16;102442.46;130567;1254;107541;-74
2023/02/06 09:10:00;;;;;;;71.30;33.80;;;;;;;-2.43;75.88;102447.75;130746;1254;107561;-73
2023/02/06 09:13:05;;;;;;;67.80;30.90;;;;;;;-2.29;75.82;102444.65;130547;1257;107765;-71
2023/02/06 09:16:11;;;;;;;67.40;29.30;;;;;;;-2.18;75.66;102449.59;130635;1257;108712;-73
2023/02/06 09:19:17;;;;;;;64.00;28.90;;;;;;;-2.12;75.58;102452.13;130592;1258;107557;-74
2023/02/06 09:22:22;;;;;;;56.50;27.40;;;;;;;-2.16;75.85;102451.48;130804;1260;107204;-70
2023/02/06 09:25:28;;;;;;;63.60;29.30;;;;;;;-2.10;75.73;102451.77;130843;1257;107541;-73
2023/02/06 09:28:34;;;;;;;68.10;32.60;;;;;;;-1.98;75.63;102449.69;130760;1257;107548;-72
2023/02/06 09:31:42;;;;;;;63.00;32.80;;;;;;;-1.92;75.57;102454.70;130650;1259;107766;-73
2023/02/06 09:34:47;;;;;;;57.80;28.30;;;;;;;-1.95;75.72;102451.58;130597;1257;107514;-72
2023/02/06 09:37:53;;;;;;;86.90;41.50;;;;;;;-2.03;76.18;102449.58;130813;1256;107561;-72
2023/02/06 09:41:01;;;;;;;98.90;44.70;;;;;;;-2.00;76.07;102452.85;130541;1257;107507;-73
2023/02/06 09:44:12;;;;;;;61.30;30.20;;;;;;;-1.93;76.20;102452.09;130588;1254;107415;-73
2023/02/06 09:47:26;;;;;;;83.30;40.10;;;;;;;-1.93;76.09;102448.42;130675;1257;107678;-73
2023/02/06 09:50:45;;;;;;;65.00;31.10;;;;;;;-1.92;76.09;102444.05;130830;1257;107513;-72
2023/02/06 09:54:04;;;;;;;64.40;31.50;;;;;;;-1.87;75.87;102440.66;130758;1258;107658;-72
2023/02/06 09:57:17;;;;;;;60.00;28.50;;;;;;;-1.78;76.13;102439.86;130698;1259;107461;-72
2023/02/06 10:00:40;;;;;;;59.20;28.40;;;;;;;-1.69;76.08;102441.30;130681;1258;107270;-72
2023/02/06 10:04:13;;;;;;;54.40;27.40;;;;;;;-1.62;75.88;102437.02;130656;1258;108629;-73
2023/02/06 10:07:32;;;;;;;69.30;37.30;;;;;;;-1.42;76.07;102433.26;130822;1256;107393;-73
2023/02/06 10:10:42;;;;;;;62.80;32.50;;;;;;;-1.11;75.98;102431.38;130530;1257;106418;-73
2023/02/06 10:13:55;;;;;;;60.50;30.10;;;;;;;-0.84;75.48;102434.95;130537;1257;108344;-73
2023/02/06 10:17:03;;;;;;;53.90;27.70;;;;;;;-0.80;75.13;102442.39;130531;1257;108178;-73
2023/02/06 10:20:26;;;;;;;53.40;27.00;;;;;;;-0.68;75.78;102445.52;130570;1254;108636;-72
2023/02/06 10:23:39;;;;;;;61.50;30.30;;;;;;;-0.46;75.78;102442.31;130671;1256;107515;-74
2023/02/06 10:26:46;;;;;;;60.40;29.50;;;;;;;-0.17;75.63;102439.15;130765;1257;107455;-74
2023/02/06 10:29:52;;;;;;;57.50;30.00;;;;;;;0.10;75.03;102438.44;130550;1254;107378;-71
2023/02/06 10:33:03;;;;;;;55.00;28.90;;;;;;;0.39;75.45;102435.54;130660;1257;107416;-73
2023/02/06 10:36:26;;;;;;;73.70;38.10;;;;;;;0.64;74.19;102427.61;130537;1254;107272;-73
2023/02/06 10:39:59;;;;;;;57.10;30.20;;;;;;;0.52;73.47;102431.39;130568;1257;107566;-74
2023/02/06 10:43:18;;;;;;;57.70;29.40;;;;;;;0.45;74.06;102436.96;130519;1254;107574;-72
2023/02/06 10:46:40;;;;;;;62.60;32.10;;;;;;;0.51;73.67;102438.42;130542;1258;107556;-73
2023/02/06 10:49:48;;;;;;;68.10;34.60;;;;;;;0.47;73.78;102436.40;130718;1260;107617;-73
2023/02/06 10:52:56;;;;;;;60.90;30.20;;;;;;;0.39;73.78;102433.09;130780;1256;107487;-73
2023/02/06 10:56:06;;;;;;;65.00;32.40;;;;;;;0.30;73.15;102433.96;130555;1259;107789;-73
2023/02/06 10:59:23;;;;;;;71.00;36.40;;;;;;;0.29;74.17;102427.68;130617;1259;107531;-73
2023/02/06 11:02:35;;;;;;;60.70;30.30;;;;;;;0.26;73.69;102426.17;130750;1258;107461;-73
2023/02/06 11:05:42;;;;;;;57.90;29.80;;;;;;;0.14;73.91;102418.20;130529;1256;107047;-72
2023/02/06 11:08:48;;;;;;;64.00;33.00;;;;;;;0.20;74.42;102424.56;130578;1268;107260;-73
2023/02/06 11:11:56;;;;;;;63.70;30.10;;;;;;;0.22;74.37;102429.06;130613;1258;107573;-75
2023/02/06 11:15:07;;;;;;;58.30;28.60;;;;;;;0.27;74.61;102428.98;130659;1260;107592;-71
2023/02/06 11:18:17;;;;;;;52.50;25.90;;;;;;;0.45;74.66;102432.08;130624;1257;107380;-73
2023/02/06 11:21:50;;;;;;;61.00;30.90;;;;;;;0.59;74.71;102437.70;130564;1258;107258;-73
2023/02/06 11:25:06;;;;;;;76.10;37.30;;;;;;;0.66;73.46;102440.00;130596;1256;107253;-74
2023/02/06 11:28:18;;;;;;;71.80;33.70;;;;;;;0.62;73.23;102442.36;130756;1258;108165;-72
2023/02/06 11:31:41;;;;;;;71.50;33.10;;;;;;;0.44;72.83;102447.15;130621;1255;107572;-73
2023/02/06 11:34:56;;;;;;;62.00;32.20;;;;;;;0.30;73.25;102452.88;130595;1256;107564;-73
2023/02/06 11:38:15;;;;;;;60.10;30.00;;;;;;;0.23;73.47;102458.46;130494;1258;107485;-73
2023/02/06 11:41:21;;;;;;;61.40;32.30;;;;;;;0.10;73.36;102463.98;130623;1257;107539;-73
2023/02/06 11:44:28;;;;;;;64.70;33.90;;;;;;;-0.02;73.61;102463.16;130487;1261;107946;-73
2023/02/06 11:47:36;;;;;;;58.30;29.60;;;;;;;0.00;74.17;102463.13;130525;1255;108698;-73
2023/02/06 11:50:41;;;;;;;59.20;30.20;;;;;;;-0.03;73.73;102458.98;130564;1257;107530;-73
2023/02/06 11:53:58;;;;;;;54.10;27.60;;;;;;;-0.09;73.83;102449.48;130532;1259;107507;-73
2023/02/06 11:57:08;;;;;;;56.70;29.10;;;;;;;-0.10;73.85;102447.23;130695;1257;108693;-72
2023/02/06 12:00:22;;;;;;;53.40;27.00;;;;;;;-0.19;74.06;102448.98;130723;1254;107350;-71
2023/02/06 12:03:32;;;;;;;56.90;27.70;;;;;;;-0.21;74.19;102446.74;130719;1254;107535;-73
2023/02/06 12:06:40;;;;;;;55.00;26.40;;;;;;;-0.26;74.08;102443.70;130721;1257;107559;-73
2023/02/06 12:09:45;;;;;;;64.70;30.50;;;;;;;-0.33;74.21;102438.06;130685;1261;107514;-73
2023/02/06 12:12:56;;;;;;;53.40;27.20;;;;;;;-0.32;74.34;102445.74;130747;1257;107261;-72
2023/02/06 12:16:05;;;;;;;56.80;27.90;;;;;;;-0.26;74.31;102443.85;130575;1259;107393;-73
2023/02/06 12:19:18;;;;;;;56.50;28.90;;;;;;;-0.23;74.46;102444.86;130509;1259;107483;-73
2023/02/06 12:22:25;;;;;;;63.00;30.90;;;;;;;-0.16;74.20;102454.16;130609;1259;107519;-72
2023/02/06 12:25:34;;;;;;;57.70;29.30;;;;;;;-0.27;74.17;102453.68;130635;1258;107967;-71
2023/02/06 12:28:49;;;;;;;58.70;30.50;;;;;;;-0.27;74.56;102453.70;130662;1258;105868;-73
2023/02/06 12:32:06;;;;;;;53.90;26.90;;;;;;;-0.26;74.19;102449.98;130516;1254;107389;-73
2023/02/06 12:35:20;;;;;;;56.90;28.60;;;;;;;-0.18;74.72;102451.42;130760;1259;107236;-74
2023/02/06 12:38:35;;;;;;;61.20;31.10;;;;;;;-0.19;74.45;102449.34;130602;1272;107438;-73
2023/02/06 12:41:53;;;;;;;52.80;26.60;;;;;;;-0.16;74.54;102449.10;130636;1254;107632;-73
2023/02/06 12:45:03;;;;;;;63.80;31.00;;;;;;;-0.04;74.44;102450.09;130777;1258;108479;-71
2023/02/06 12:48:15;;;;;;;60.20;30.80;;;;;;;-0.12;74.10;102449.20;130704;1256;105542;-73
2023/02/06 12:51:23;;;;;;;;;;;;;;;-0.13;74.38;102450.61;130870;1257;107501;-73
2023/02/06 12:54:34;;;;;;;54.50;28.00;;;;;;;-0.18;74.15;102453.87;130620;1256;107532;-72
2023/02/06 12:57:40;;;;;;;50.80;26.70;;;;;;;-0.28;74.24;102456.15;130614;1254;107541;-73
2023/02/06 13:01:04;;;;;;;67.70;30.40;;;;;;;-0.24;74.67;102452.59;130742;1254;106148;-72
2023/02/06 13:04:15;;;;;;;62.40;27.70;;;;;;;-0.20;74.58;102454.60;130773;1258;107445;-72
2023/02/06 13:07:26;;;;;;;48.40;22.30;;;;;;;-0.10;74.65;102461.92;130678;1254;106560;-74
2023/02/06 13:10:32;;;;;;;57.30;28.20;;;;;;;0.13;74.47;102463.40;130791;1257;107369;-73
2023/02/06 13:13:40;;;;;;;63.50;30.00;;;;;;;0.18;73.95;102465.39;130734;1254;107258;-74
2023/02/06 13:16:52;;;;;;;54.80;27.20;;;;;;;0.11;73.98;102451.20;130689;1258;107417;-71
2023/02/06 13:20:07;;;;;;;51.40;25.80;;;;;;;0.03;74.14;102447.85;130699;1258;107356;-71
2023/02/06 13:23:24;;;;;;;53.90;26.90;;;;;;;0.07;74.38;102446.02;130734;1255;107505;-71
2023/02/06 13:27:02;;;;;;;60.20;30.20;;;;;;;0.14;74.06;102445.88;130813;1257;107466;-71
2023/02/06 13:30:48;;;;;;;53.20;27.00;;;;;;;0.13;74.62;102443.45;130745;1254;108494;-71
2023/02/06 13:33:57;;;;;;;75.10;31.80;;;;;;;0.23;74.47;102440.42;130533;1254;107507;-73
2023/02/06 13:37:31;;;;;;;56.10;26.50;;;;;;;0.21;74.19;102444.67;130526;1271;108616;-72
2023/02/06 13:40:37;;;;;;;51.90;25.80;;;;;;;0.12;74.00;102448.54;130780;1257;107276;-74
2023/02/06 13:43:45;;;;;;;56.10;26.20;;;;;;;0.08;74.36;102446.35;130543;1257;107690;-74
2023/02/06 13:47:19;;;;;;;69.30;36.60;;;;;;;0.07;74.38;102442.34;130777;1257;107579;-71
2023/02/06 13:50:40;;;;;;;77.30;44.00;;;;;;;0.12;74.28;102441.36;130663;1257;107374;-72
2023/02/06 13:54:17;;;;;;;80.10;41.60;;;;;;;0.13;74.30;102446.94;130709;1257;105707;-73
2023/02/06 13:57:50;;;;;;;58.40;27.90;;;;;;;0.10;74.06;102456.98;130678;1254;107545;-73
2023/02/06 14:00:58;;;;;;;54.70;26.10;;;;;;;0.09;73.90;102456.13;130632;1256;108646;-73
2023/02/06 14:04:13;;;;;;;58.90;27.10;;;;;;;0.06;74.00;102450.07;130597;1256;108725;-74